createdAt,value
2022-11-21T00:00:02.793Z,91.00
2022-11-21T00:01:02.476Z,91.00
2022-11-21T00:02:02.658Z,91.00
2022-11-21T00:03:02.998Z,91.00
2022-11-21T00:04:02.435Z,91.00
2022-11-21T00:05:02.487Z,92.00
2022-11-21T00:06:02.945Z,91.00
2022-11-21T00:07:02.123Z,91.00
2022-11-21T00:08:02.433Z,91.00
2022-11-21T00:09:02.119Z,91.00
2022-11-21T00:10:02.050Z,92.00
2022-11-21T00:11:01.974Z,92.00
2022-11-21T00:12:02.582Z,91.00
2022-11-21T00:13:02.274Z,91.00
2022-11-21T00:14:02.744Z,91.00
2022-11-21T00:15:02.345Z,91.00
2022-11-21T00:16:02.715Z,90.00
2022-11-21T00:17:02.038Z,90.00
2022-11-21T00:18:02.034Z,90.00
2022-11-21T00:19:01.935Z,90.00
2022-11-21T00:20:02.478Z,90.00
2022-11-21T00:21:01.926Z,90.00
2022-11-21T00:22:02.825Z,90.00
2022-11-21T00:23:02.842Z,90.00
2022-11-21T00:24:02.476Z,90.00
2022-11-21T00:25:02.468Z,89.00
2022-11-21T00:26:02.941Z,89.00
2022-11-21T00:27:02.161Z,89.00
2022-11-21T00:28:01.790Z,89.00
2022-11-21T00:29:02.356Z,89.00
2022-11-21T00:30:02.364Z,89.00
2022-11-21T00:31:01.983Z,89.00
2022-11-21T00:32:01.933Z,89.00
2022-11-21T00:33:02.029Z,89.00
2022-11-21T00:34:02.433Z,89.00
2022-11-21T00:35:01.960Z,89.00
2022-11-21T00:36:02.211Z,89.00
2022-11-21T00:37:02.389Z,89.00
2022-11-21T00:38:02.082Z,89.00
2022-11-21T00:39:01.957Z,88.00
2022-11-21T00:40:02.450Z,88.00
2022-11-21T00:41:02.131Z,88.00
2022-11-21T00:42:02.645Z,88.00
2022-11-21T00:43:02.317Z,88.00
2022-11-21T00:44:02.303Z,88.00
2022-11-21T00:45:02.496Z,88.00
2022-11-21T00:46:02.940Z,88.00
2022-11-21T00:47:02.703Z,88.00
2022-11-21T00:48:02.431Z,88.00
2022-11-21T00:49:02.704Z,87.00
2022-11-21T00:50:03.037Z,87.00
2022-11-21T00:51:02.999Z,88.00
2022-11-21T00:52:02.137Z,88.00
2022-11-21T00:53:01.950Z,88.00
2022-11-21T00:54:01.797Z,88.00
2022-11-21T00:55:01.644Z,88.00
2022-11-21T00:56:01.572Z,87.00
2022-11-21T00:57:02.074Z,87.00
2022-11-21T00:58:02.468Z,87.00
2022-11-21T00:59:02.418Z,88.00
2022-11-21T01:00:02.056Z,88.00
2022-11-21T01:01:02.199Z,87.00
2022-11-21T01:02:03.272Z,87.00
2022-11-21T01:03:02.626Z,87.00
2022-11-21T01:04:03.264Z,87.00
2022-11-21T01:05:03.335Z,87.00
2022-11-21T01:06:02.595Z,87.00
2022-11-21T01:07:02.624Z,87.00
2022-11-21T01:08:02.415Z,87.00
2022-11-21T01:09:02.239Z,86.00
2022-11-21T01:10:02.282Z,86.00
2022-11-21T01:11:02.406Z,86.00
2022-11-21T01:12:02.077Z,86.00
2022-11-21T01:13:02.465Z,86.00
2022-11-21T01:14:02.149Z,86.00
2022-11-21T01:15:02.271Z,86.00
2022-11-21T01:16:02.439Z,86.00
2022-11-21T01:17:03.033Z,86.00
2022-11-21T01:18:03.190Z,86.00
2022-11-21T01:19:02.640Z,86.00
2022-11-21T01:20:02.727Z,86.00
2022-11-21T01:21:02.749Z,86.00
2022-11-21T01:22:02.163Z,85.00
2022-11-21T01:23:02.251Z,85.00
2022-11-21T01:24:02.410Z,86.00
2022-11-21T01:25:02.295Z,85.00
2022-11-21T01:26:02.849Z,85.00
2022-11-21T01:27:02.471Z,85.00
2022-11-21T01:28:02.350Z,85.00
2022-11-21T01:29:02.285Z,85.00
2022-11-21T01:30:02.513Z,85.00
2022-11-21T01:31:02.427Z,85.00
2022-11-21T01:32:02.832Z,85.00
2022-11-21T01:33:02.715Z,85.00
2022-11-21T01:34:02.861Z,85.00
2022-11-21T01:35:02.920Z,85.00
2022-11-21T01:36:02.776Z,85.00
2022-11-21T01:37:02.259Z,85.00
2022-11-21T01:38:02.077Z,85.00
2022-11-21T01:39:02.080Z,85.00
2022-11-21T01:40:02.415Z,85.00
2022-11-21T01:41:02.571Z,85.00
2022-11-21T01:42:02.176Z,85.00
2022-11-21T01:43:02.555Z,85.00
2022-11-21T01:44:02.830Z,84.00
2022-11-21T01:45:02.728Z,85.00
2022-11-21T01:46:02.422Z,85.00
2022-11-21T01:47:02.623Z,85.00
2022-11-21T01:48:02.951Z,85.00
2022-11-21T01:49:03.002Z,85.00
2022-11-21T01:50:02.582Z,85.00
2022-11-21T01:51:02.687Z,85.00
2022-11-21T01:52:02.389Z,85.00
2022-11-21T01:53:02.026Z,85.00
2022-11-21T01:54:02.228Z,85.00
2022-11-21T01:55:02.210Z,84.00
2022-11-21T01:56:01.883Z,84.00
2022-11-21T01:57:02.134Z,84.00
2022-11-21T01:58:02.504Z,85.00
2022-11-21T01:59:02.444Z,85.00
2022-11-21T02:00:02.403Z,84.00
2022-11-21T02:01:02.257Z,84.00
2022-11-21T02:02:02.783Z,84.00
2022-11-21T02:03:02.679Z,84.00
2022-11-21T02:04:02.396Z,83.00
2022-11-21T02:05:02.403Z,83.00
2022-11-21T02:06:02.411Z,84.00
2022-11-21T02:07:02.695Z,84.00
2022-11-21T02:08:02.878Z,84.00
2022-11-21T02:09:02.962Z,84.00
2022-11-21T02:10:03.007Z,84.00
2022-11-21T02:11:02.598Z,84.00
2022-11-21T02:12:03.146Z,84.00
2022-11-21T02:13:03.320Z,85.00
2022-11-21T02:14:03.144Z,84.00
2022-11-21T02:15:03.208Z,84.00
2022-11-21T02:16:03.037Z,84.00
2022-11-21T02:17:02.379Z,84.00
2022-11-21T02:18:02.706Z,84.00
2022-11-21T02:19:02.448Z,84.00
2022-11-21T02:20:02.750Z,84.00
2022-11-21T02:21:02.208Z,84.00
2022-11-21T02:22:02.463Z,84.00
2022-11-21T02:23:02.773Z,84.00
2022-11-21T02:24:02.546Z,84.00
2022-11-21T02:25:02.582Z,84.00
2022-11-21T02:26:02.448Z,84.00
2022-11-21T02:27:03.105Z,84.00
2022-11-21T02:28:02.972Z,84.00
2022-11-21T02:29:03.147Z,84.00
2022-11-21T02:30:03.045Z,84.00
2022-11-21T02:31:02.884Z,84.00
2022-11-21T02:32:02.303Z,84.00
2022-11-21T02:33:02.652Z,84.00
2022-11-21T02:34:02.647Z,83.00
2022-11-21T02:35:02.248Z,83.00
2022-11-21T02:36:02.147Z,83.00
2022-11-21T02:37:03.014Z,83.00
2022-11-21T02:38:03.390Z,83.00
2022-11-21T02:39:02.904Z,83.00
2022-11-21T02:40:03.761Z,83.00
2022-11-21T02:41:03.227Z,83.00
2022-11-21T02:42:02.589Z,83.00
2022-11-21T02:43:02.287Z,83.00
2022-11-21T02:44:02.623Z,83.00
2022-11-21T02:45:02.266Z,83.00
2022-11-21T02:46:02.150Z,83.00
2022-11-21T02:47:03.381Z,83.00
2022-11-21T02:48:04.481Z,83.00
2022-11-21T02:49:03.478Z,83.00
2022-11-21T02:50:03.130Z,83.00
2022-11-21T02:51:03.049Z,83.00
2022-11-21T02:52:02.612Z,83.00
2022-11-21T02:53:02.496Z,82.00
2022-11-21T02:54:02.400Z,83.00
2022-11-21T02:55:02.426Z,83.00
2022-11-21T02:56:02.334Z,83.00
2022-11-21T02:57:02.588Z,83.00
2022-11-21T02:58:05.288Z,83.00
2022-11-21T02:59:02.675Z,83.00
2022-11-21T03:00:02.678Z,83.00
2022-11-21T03:01:02.961Z,83.00
2022-11-21T03:02:01.659Z,83.00
2022-11-21T03:03:01.750Z,83.00
2022-11-21T03:04:01.744Z,83.00
2022-11-21T03:05:01.894Z,83.00
2022-11-21T03:06:01.865Z,83.00
2022-11-21T03:07:01.841Z,83.00
2022-11-21T03:08:02.255Z,83.00
2022-11-21T03:09:01.661Z,83.00
2022-11-21T03:10:02.240Z,83.00
2022-11-21T03:11:01.941Z,83.00
2022-11-21T03:12:02.218Z,83.00
2022-11-21T03:13:02.306Z,83.00
2022-11-21T03:14:02.436Z,83.00
2022-11-21T03:15:02.090Z,83.00
2022-11-21T03:16:02.310Z,83.00
2022-11-21T03:17:02.330Z,83.00
2022-11-21T03:18:02.443Z,83.00
2022-11-21T03:19:02.788Z,83.00
2022-11-21T03:20:02.287Z,83.00
2022-11-21T03:21:02.717Z,83.00
2022-11-21T03:22:01.671Z,83.00
2022-11-21T03:23:01.927Z,83.00
2022-11-21T03:24:01.794Z,82.00
2022-11-21T03:25:02.140Z,83.00
2022-11-21T03:26:01.824Z,82.00
2022-11-21T03:27:02.651Z,82.00
2022-11-21T03:28:02.679Z,83.00
2022-11-21T03:29:02.117Z,83.00
2022-11-21T03:30:02.633Z,82.00
2022-11-21T03:31:02.400Z,83.00
2022-11-21T03:32:02.476Z,83.00
2022-11-21T03:33:02.459Z,83.00
2022-11-21T03:34:02.624Z,83.00
2022-11-21T03:35:02.329Z,83.00
2022-11-21T03:36:02.600Z,83.00
2022-11-21T03:37:01.920Z,83.00
2022-11-21T03:38:01.799Z,83.00
2022-11-21T03:39:01.825Z,83.00
2022-11-21T03:40:01.474Z,83.00
2022-11-21T03:41:02.021Z,83.00
2022-11-21T03:42:02.280Z,83.00
2022-11-21T03:43:02.291Z,83.00
2022-11-21T03:44:02.181Z,83.00
2022-11-21T03:45:02.558Z,83.00
2022-11-21T03:46:02.108Z,83.00
2022-11-21T03:47:01.469Z,83.00
2022-11-21T03:48:01.471Z,83.00
2022-11-21T03:49:01.518Z,83.00
2022-11-21T03:50:01.906Z,83.00
2022-11-21T03:51:02.001Z,83.00
2022-11-21T03:52:02.027Z,83.00
2022-11-21T03:53:01.946Z,83.00
2022-11-21T03:54:01.600Z,83.00
2022-11-21T03:55:02.228Z,83.00
2022-11-21T03:56:02.192Z,83.00
2022-11-21T03:57:02.695Z,83.00
2022-11-21T03:58:02.513Z,83.00
2022-11-21T03:59:02.535Z,83.00
2022-11-21T04:00:02.166Z,83.00
2022-11-21T04:01:02.716Z,83.00
2022-11-21T04:02:02.963Z,83.00
2022-11-21T04:03:02.805Z,83.00
2022-11-21T04:04:03.129Z,83.00
2022-11-21T04:05:03.177Z,83.00
2022-11-21T04:06:03.058Z,83.00
2022-11-21T04:07:02.486Z,83.00
2022-11-21T04:08:02.478Z,82.00
2022-11-21T04:09:02.761Z,83.00
2022-11-21T04:10:03.004Z,83.00
2022-11-21T04:11:02.934Z,83.00
2022-11-21T04:12:07.531Z,83.00
2022-11-21T04:13:03.291Z,83.00
2022-11-21T04:14:03.014Z,83.00
2022-11-21T04:15:03.182Z,83.00
2022-11-21T04:16:02.871Z,83.00
2022-11-21T04:17:02.219Z,83.00
2022-11-21T04:18:02.482Z,83.00
2022-11-21T04:19:02.586Z,83.00
2022-11-21T04:20:02.130Z,83.00
2022-11-21T04:21:02.408Z,83.00
2022-11-21T04:22:03.126Z,83.00
2022-11-21T04:23:02.853Z,83.00
2022-11-21T04:24:03.236Z,83.00
2022-11-21T04:25:02.646Z,82.00
2022-11-21T04:26:03.014Z,82.00
2022-11-21T04:27:02.310Z,82.00
2022-11-21T04:28:02.233Z,82.00
2022-11-21T04:29:02.363Z,82.00
2022-11-21T04:30:02.252Z,82.00
2022-11-21T04:31:05.729Z,81.00
2022-11-21T04:32:02.587Z,81.00
2022-11-21T04:33:02.867Z,81.00
2022-11-21T04:34:03.051Z,81.00
2022-11-21T04:35:02.803Z,81.00
2022-11-21T04:36:02.969Z,81.00
2022-11-21T04:37:03.642Z,81.00
2022-11-21T04:38:02.620Z,81.00
2022-11-21T04:39:02.631Z,81.00
2022-11-21T04:40:02.504Z,81.00
2022-11-21T04:41:02.206Z,81.00
2022-11-21T04:42:02.509Z,81.00
2022-11-21T04:43:02.826Z,81.00
2022-11-21T04:44:02.371Z,82.00
2022-11-21T04:45:02.724Z,82.00
2022-11-21T04:46:02.428Z,81.00
2022-11-21T04:47:05.589Z,81.00
2022-11-21T04:48:03.355Z,81.00
2022-11-21T04:49:02.765Z,81.00
2022-11-21T04:50:02.601Z,81.00
2022-11-21T04:51:02.577Z,81.00
2022-11-21T04:52:02.167Z,81.00
2022-11-21T04:53:02.479Z,81.00
2022-11-21T04:54:02.080Z,81.00
2022-11-21T04:55:02.558Z,81.00
2022-11-21T04:56:02.545Z,81.00
2022-11-21T04:57:02.948Z,81.00
2022-11-21T04:58:02.806Z,81.00
2022-11-21T04:59:02.886Z,81.00
2022-11-21T05:00:02.707Z,81.00
2022-11-21T05:01:02.892Z,81.00
2022-11-21T05:02:02.577Z,81.00
2022-11-21T05:03:02.199Z,81.00
2022-11-21T05:04:02.564Z,81.00
2022-11-21T05:05:02.521Z,81.00
2022-11-21T05:06:02.798Z,81.00
2022-11-21T05:07:02.683Z,81.00
2022-11-21T05:08:02.712Z,82.00
2022-11-21T05:09:02.823Z,82.00
2022-11-21T05:10:03.084Z,82.00
2022-11-21T05:11:03.118Z,82.00
2022-11-21T05:12:02.248Z,81.00
2022-11-21T05:13:01.982Z,82.00
2022-11-21T05:14:02.123Z,82.00
2022-11-21T05:15:01.930Z,82.00
2022-11-21T05:16:01.904Z,82.00
2022-11-21T05:17:02.328Z,82.00
2022-11-21T05:18:02.054Z,82.00
2022-11-21T05:19:02.227Z,82.00
2022-11-21T05:20:01.999Z,82.00
2022-11-21T05:21:02.250Z,82.00
2022-11-21T05:22:02.544Z,82.00
2022-11-21T05:23:03.080Z,83.00
2022-11-21T05:24:02.446Z,83.00
2022-11-21T05:25:02.890Z,83.00
2022-11-21T05:26:02.571Z,83.00
2022-11-21T05:27:02.994Z,83.00
2022-11-21T05:28:02.693Z,83.00
2022-11-21T05:29:02.968Z,83.00
2022-11-21T05:30:03.077Z,83.00
2022-11-21T05:31:02.653Z,83.00
2022-11-21T05:32:02.654Z,82.00
2022-11-21T05:33:02.643Z,82.00
2022-11-21T05:34:02.423Z,82.00
2022-11-21T05:35:02.183Z,82.00
2022-11-21T05:36:02.243Z,82.00
2022-11-21T05:37:02.855Z,83.00
2022-11-21T05:38:02.386Z,83.00
2022-11-21T05:39:02.543Z,82.00
2022-11-21T05:40:02.325Z,82.00
2022-11-21T05:41:02.590Z,82.00
2022-11-21T05:42:03.373Z,82.00
2022-11-21T05:43:01.824Z,82.00
2022-11-21T05:44:02.222Z,82.00
2022-11-21T05:45:02.104Z,82.00
2022-11-21T05:46:01.828Z,82.00
2022-11-21T05:47:02.438Z,83.00
2022-11-21T05:48:02.889Z,82.00
2022-11-21T05:49:02.511Z,82.00
2022-11-21T05:50:02.462Z,83.00
2022-11-21T05:51:02.789Z,82.00
2022-11-21T05:52:02.487Z,82.00
2022-11-21T05:53:02.763Z,82.00
2022-11-21T05:54:02.511Z,82.00
2022-11-21T05:55:02.957Z,82.00
2022-11-21T05:56:02.744Z,81.00
2022-11-21T05:57:02.322Z,81.00
2022-11-21T05:58:02.074Z,81.00
2022-11-21T05:59:01.745Z,81.00
2022-11-21T06:00:01.911Z,81.00
2022-11-21T06:01:01.906Z,81.00
2022-11-21T06:02:02.891Z,81.00
2022-11-21T06:03:02.867Z,81.00
2022-11-21T06:04:02.947Z,81.00
2022-11-21T06:05:02.615Z,81.00
2022-11-21T06:06:02.300Z,81.00
2022-11-21T06:07:03.196Z,81.00
2022-11-21T06:08:02.881Z,81.00
2022-11-21T06:09:02.851Z,80.00
2022-11-21T06:10:03.029Z,80.00
2022-11-21T06:11:02.510Z,80.00
2022-11-21T06:12:03.591Z,80.00
2022-11-21T06:13:03.564Z,80.00
2022-11-21T06:14:03.460Z,80.00
2022-11-21T06:15:03.056Z,80.00
2022-11-21T06:16:03.282Z,80.00
2022-11-21T06:17:03.516Z,80.00
2022-11-21T06:18:03.433Z,80.00
2022-11-21T06:19:03.557Z,80.00
2022-11-21T06:20:03.315Z,80.00
2022-11-21T06:21:03.601Z,80.00
2022-11-21T06:22:02.224Z,80.00
2022-11-21T06:23:02.829Z,80.00
2022-11-21T06:24:02.853Z,81.00
2022-11-21T06:25:02.685Z,80.00
2022-11-21T06:26:02.582Z,80.00
2022-11-21T06:27:02.346Z,81.00
2022-11-21T06:28:02.774Z,81.00
2022-11-21T06:29:02.441Z,81.00
2022-11-21T06:30:02.592Z,81.00
2022-11-21T06:31:02.759Z,81.00
2022-11-21T06:32:02.960Z,81.00
2022-11-21T06:33:03.456Z,81.00
2022-11-21T06:34:03.342Z,81.00
2022-11-21T06:35:03.102Z,81.00
2022-11-21T06:36:03.500Z,81.00
2022-11-21T06:37:03.183Z,81.00
2022-11-21T06:38:03.653Z,81.00
2022-11-21T06:39:03.079Z,81.00
2022-11-21T06:40:03.486Z,81.00
2022-11-21T06:41:03.170Z,81.00
2022-11-21T06:42:02.707Z,81.00
2022-11-21T06:43:03.159Z,81.00
2022-11-21T06:44:02.837Z,82.00
2022-11-21T06:45:03.062Z,82.00
2022-11-21T06:46:02.745Z,82.00
2022-11-21T06:47:02.730Z,81.00
2022-11-21T06:48:03.070Z,81.00
2022-11-21T06:49:02.730Z,81.00
2022-11-21T06:50:03.187Z,81.00
2022-11-21T06:51:03.059Z,81.00
2022-11-21T06:52:02.903Z,81.00
2022-11-21T06:53:02.688Z,81.00
2022-11-21T06:54:03.306Z,81.00
2022-11-21T06:55:03.169Z,81.00
2022-11-21T06:56:03.216Z,81.00
2022-11-21T06:57:03.115Z,81.00
2022-11-21T06:58:03.228Z,81.00
2022-11-21T06:59:03.354Z,80.00
2022-11-21T07:00:03.529Z,80.00
2022-11-21T07:01:03.627Z,80.00
2022-11-21T07:02:03.158Z,80.00
2022-11-21T07:03:03.765Z,81.00
2022-11-21T07:04:03.620Z,81.00
2022-11-21T07:05:03.575Z,81.00
2022-11-21T07:06:03.392Z,81.00
2022-11-21T07:07:03.255Z,81.00
2022-11-21T07:08:03.481Z,81.00
2022-11-21T07:09:32.655Z,81.00
2022-11-21T07:10:03.493Z,81.00
2022-11-21T07:11:24.051Z,81.00
2022-11-21T07:12:02.959Z,81.00
2022-11-21T07:13:02.527Z,81.00
2022-11-21T07:14:08.790Z,81.00
2022-11-21T07:15:02.962Z,81.00
2022-11-21T07:16:02.522Z,81.00
2022-11-21T07:17:03.437Z,81.00
2022-11-21T07:18:03.596Z,81.00
2022-11-21T07:19:03.368Z,81.00
2022-11-21T07:20:03.369Z,81.00
2022-11-21T07:21:03.541Z,81.00
2022-11-21T07:22:03.165Z,81.00
2022-11-21T07:23:03.603Z,80.00
2022-11-21T07:24:03.094Z,80.00
2022-11-21T07:25:03.664Z,81.00
2022-11-21T07:26:03.408Z,81.00
2022-11-21T07:27:02.832Z,81.00
2022-11-21T07:28:03.019Z,81.00
2022-11-21T07:29:02.729Z,81.00
2022-11-21T07:30:02.646Z,81.00
2022-11-21T07:31:07.093Z,80.00
2022-11-21T07:32:03.535Z,80.00
2022-11-21T07:33:03.310Z,80.00
2022-11-21T07:34:03.421Z,80.00
2022-11-21T07:35:03.392Z,80.00
2022-11-21T07:36:03.249Z,80.00
2022-11-21T07:37:05.130Z,80.00
2022-11-21T07:38:03.013Z,80.00
2022-11-21T07:39:03.096Z,79.00
2022-11-21T07:40:03.130Z,79.00
2022-11-21T07:41:02.884Z,79.00
2022-11-21T07:42:02.859Z,79.00
2022-11-21T07:43:05.461Z,79.00
2022-11-21T07:44:02.645Z,79.00
2022-11-21T07:45:02.896Z,78.00
2022-11-21T07:46:02.679Z,78.00
2022-11-21T07:47:03.643Z,78.00
2022-11-21T07:48:03.552Z,78.00
2022-11-21T07:49:03.695Z,78.00
2022-11-21T07:50:03.619Z,78.00
2022-11-21T07:51:03.598Z,78.00
2022-11-21T07:52:02.730Z,78.00
2022-11-21T07:53:02.429Z,78.00
2022-11-21T07:54:02.934Z,78.00
2022-11-21T07:55:02.700Z,78.00
2022-11-21T07:56:02.485Z,79.00
2022-11-21T07:57:02.803Z,79.00
2022-11-21T07:58:03.082Z,79.00
2022-11-21T07:59:02.872Z,79.00
2022-11-21T08:00:02.644Z,79.00
2022-11-21T08:01:02.748Z,79.00
2022-11-21T08:02:02.373Z,79.00
2022-11-21T08:03:02.243Z,79.00
2022-11-21T08:04:02.015Z,79.00
2022-11-21T08:05:02.261Z,79.00
2022-11-21T08:06:02.112Z,79.00
2022-11-21T08:07:02.243Z,79.00
2022-11-21T08:08:02.699Z,79.00
2022-11-21T08:09:02.328Z,79.00
2022-11-21T08:10:02.099Z,79.00
2022-11-21T08:11:02.552Z,79.00
2022-11-21T08:12:02.011Z,79.00
2022-11-21T08:13:01.657Z,78.00
2022-11-21T08:14:02.267Z,78.00
2022-11-21T08:15:01.834Z,78.00
2022-11-21T08:16:01.660Z,78.00
2022-11-21T08:17:02.706Z,77.00
2022-11-21T08:18:02.632Z,77.00
2022-11-21T08:19:02.399Z,77.00
2022-11-21T08:20:02.246Z,77.00
2022-11-21T08:21:02.700Z,77.00
2022-11-21T08:22:01.984Z,77.00
2022-11-21T08:23:01.869Z,77.00
2022-11-21T08:24:01.699Z,77.00
2022-11-21T08:25:02.200Z,77.00
2022-11-21T08:26:02.298Z,77.00
2022-11-21T08:27:02.324Z,77.00
2022-11-21T08:28:01.991Z,77.00
2022-11-21T08:29:01.935Z,77.00
2022-11-21T08:30:02.390Z,77.00
2022-11-21T08:31:01.962Z,77.00
2022-11-21T08:32:02.864Z,78.00
2022-11-21T08:33:02.887Z,78.00
2022-11-21T08:34:02.557Z,78.00
2022-11-21T08:35:02.561Z,78.00
2022-11-21T08:36:02.342Z,78.00
2022-11-21T08:37:01.713Z,78.00
2022-11-21T08:38:01.903Z,78.00
2022-11-21T08:39:01.622Z,78.00
2022-11-21T08:40:02.178Z,78.00
2022-11-21T08:41:02.175Z,78.00
2022-11-21T08:42:02.547Z,78.00
2022-11-21T08:43:02.566Z,78.00
2022-11-21T08:44:02.577Z,78.00
2022-11-21T08:45:02.308Z,78.00
2022-11-21T08:46:02.585Z,78.00
2022-11-21T08:47:02.710Z,78.00
2022-11-21T08:48:02.840Z,78.00
2022-11-21T08:49:02.706Z,78.00
2022-11-21T08:50:08.585Z,78.00
2022-11-21T08:51:02.977Z,78.00
2022-11-21T08:52:02.017Z,78.00
2022-11-21T08:53:02.070Z,78.00
2022-11-21T08:54:01.654Z,79.00
2022-11-21T08:55:01.872Z,79.00
2022-11-21T08:56:04.355Z,78.00
2022-11-21T08:57:02.460Z,79.00
2022-11-21T08:58:01.852Z,79.00
2022-11-21T08:59:02.137Z,79.00
2022-11-21T09:00:02.186Z,78.00
2022-11-21T09:01:02.095Z,79.00
2022-11-21T09:02:01.535Z,79.00
2022-11-21T09:03:01.848Z,79.00
2022-11-21T09:04:01.572Z,79.00
2022-11-21T09:05:01.731Z,79.00
2022-11-21T09:06:01.722Z,79.00
2022-11-21T09:07:02.037Z,79.00
2022-11-21T09:08:02.043Z,78.00
2022-11-21T09:09:02.062Z,78.00
2022-11-21T09:10:02.609Z,78.00
2022-11-21T09:11:02.404Z,78.00
2022-11-21T09:12:02.243Z,78.00
2022-11-21T09:13:02.377Z,78.00
2022-11-21T09:14:02.270Z,79.00
2022-11-21T09:15:02.694Z,79.00
2022-11-21T09:16:02.420Z,79.00
2022-11-21T09:17:02.438Z,79.00
2022-11-21T09:18:01.497Z,78.00
2022-11-21T09:19:01.429Z,78.00
2022-11-21T09:20:01.830Z,78.00
2022-11-21T09:21:01.421Z,78.00
2022-11-21T09:22:01.949Z,78.00
2022-11-21T09:23:02.376Z,78.00
2022-11-21T09:24:02.490Z,77.00
2022-11-21T09:25:02.018Z,77.00
2022-11-21T09:26:02.049Z,78.00
2022-11-21T09:27:01.491Z,78.00
2022-11-21T09:28:02.035Z,78.00
2022-11-21T09:29:01.667Z,77.00
2022-11-21T09:30:01.488Z,76.00
2022-11-21T09:31:01.588Z,76.00
2022-11-21T09:32:01.782Z,76.00
2022-11-21T09:33:02.127Z,75.00
2022-11-21T09:34:01.849Z,75.00
2022-11-21T09:35:02.346Z,75.00
2022-11-21T09:36:01.824Z,76.00
2022-11-21T09:37:02.162Z,77.00
2022-11-21T09:38:02.629Z,77.00
2022-11-21T09:39:02.478Z,77.00
2022-11-21T09:40:02.646Z,77.00
2022-11-21T09:41:02.497Z,76.00
2022-11-21T09:42:02.764Z,76.00
2022-11-21T09:43:02.636Z,75.00
2022-11-21T09:44:02.559Z,76.00
2022-11-21T09:45:02.534Z,76.00
2022-11-21T09:46:02.857Z,76.00
2022-11-21T09:47:02.470Z,75.00
2022-11-21T09:48:02.903Z,76.00
2022-11-21T09:49:03.094Z,75.00
2022-11-21T09:50:02.989Z,75.00
2022-11-21T09:51:02.389Z,75.00
2022-11-21T09:52:02.069Z,76.00
2022-11-21T09:53:01.973Z,76.00
2022-11-21T09:54:01.943Z,77.00
2022-11-21T09:55:02.478Z,77.00
2022-11-21T09:56:02.021Z,77.00
2022-11-21T09:57:02.304Z,76.00
2022-11-21T09:58:02.762Z,75.00
2022-11-21T09:59:02.329Z,76.00
2022-11-21T10:00:02.773Z,76.00
2022-11-21T10:01:03.162Z,75.00
2022-11-21T10:02:02.631Z,75.00
2022-11-21T10:03:02.698Z,76.00
2022-11-21T10:04:02.565Z,75.00
2022-11-21T10:05:03.062Z,75.00
2022-11-21T10:06:02.479Z,75.00
2022-11-21T10:07:02.131Z,74.00
2022-11-21T10:08:01.960Z,73.00
2022-11-21T10:09:02.571Z,73.00
2022-11-21T10:10:02.114Z,74.00
2022-11-21T10:11:11.437Z,74.00
2022-11-21T10:12:02.105Z,74.00
2022-11-21T10:13:02.357Z,74.00
2022-11-21T10:14:02.213Z,75.00
2022-11-21T10:15:01.927Z,75.00
2022-11-21T10:16:02.408Z,75.00
2022-11-21T10:17:02.208Z,74.00
2022-11-21T10:18:02.575Z,74.00
2022-11-21T10:19:02.136Z,73.00
2022-11-21T10:20:02.375Z,74.00
2022-11-21T10:21:02.119Z,71.00
2022-11-21T10:22:02.877Z,71.00
2022-11-21T10:23:02.762Z,71.00
2022-11-21T10:24:02.410Z,70.00
2022-11-21T10:25:03.010Z,70.00
2022-11-21T10:26:02.669Z,71.00
2022-11-21T10:27:02.433Z,72.00
2022-11-21T10:28:02.283Z,70.00
2022-11-21T10:29:02.100Z,71.00
2022-11-21T10:30:02.630Z,69.00
2022-11-21T10:31:02.400Z,69.00
2022-11-21T10:32:01.999Z,68.00
2022-11-21T10:33:01.655Z,68.00
2022-11-21T10:34:02.057Z,67.00
2022-11-21T10:35:02.309Z,69.00
2022-11-21T10:36:02.098Z,67.00
2022-11-21T10:37:06.379Z,66.00
2022-11-21T10:38:02.611Z,67.00
2022-11-21T10:39:02.684Z,66.00
2022-11-21T10:40:02.900Z,67.00
2022-11-21T10:41:02.682Z,67.00
2022-11-21T10:42:02.410Z,67.00
2022-11-21T10:43:02.271Z,66.00
2022-11-21T10:44:02.477Z,66.00
2022-11-21T10:45:02.619Z,66.00
2022-11-21T10:46:02.234Z,66.00
2022-11-21T10:47:02.790Z,67.00
2022-11-21T10:48:08.055Z,67.00
2022-11-21T10:49:02.725Z,67.00
2022-11-21T10:50:02.534Z,67.00
2022-11-21T10:51:02.577Z,66.00
2022-11-21T10:52:02.180Z,67.00
2022-11-21T10:53:02.225Z,68.00
2022-11-21T10:54:07.629Z,68.00
2022-11-21T10:55:02.239Z,68.00
2022-11-21T10:56:02.102Z,68.00
2022-11-21T10:57:02.461Z,69.00
2022-11-21T10:58:02.262Z,69.00
2022-11-21T10:59:02.119Z,70.00
2022-11-21T11:00:02.485Z,70.00
2022-11-21T11:01:02.263Z,70.00
2022-11-21T11:02:02.886Z,71.00
2022-11-21T11:03:02.982Z,70.00
2022-11-21T11:04:26.236Z,69.00
2022-11-21T11:05:02.826Z,68.00
2022-11-21T11:06:02.669Z,69.00
2022-11-21T11:07:03.275Z,68.00
2022-11-21T11:08:03.467Z,69.00
2022-11-21T11:09:02.847Z,69.00
2022-11-21T11:10:03.417Z,68.00
2022-11-21T11:11:02.941Z,67.00
2022-11-21T11:12:02.728Z,68.00
2022-11-21T11:13:08.756Z,69.00
2022-11-21T11:14:02.495Z,67.00
2022-11-21T11:15:02.655Z,65.00
2022-11-21T11:16:02.402Z,64.00
2022-11-21T11:17:02.767Z,63.00
2022-11-21T11:18:08.839Z,63.00
2022-11-21T11:19:02.903Z,64.00
2022-11-21T11:20:02.904Z,63.00
2022-11-21T11:21:02.698Z,64.00
2022-11-21T11:22:02.970Z,65.00
2022-11-21T11:23:02.752Z,66.00
2022-11-21T11:24:02.467Z,65.00
2022-11-21T11:25:02.893Z,63.00
2022-11-21T11:26:02.681Z,63.00
2022-11-21T11:27:03.251Z,64.00
2022-11-21T11:28:02.800Z,64.00
2022-11-21T11:29:03.210Z,64.00
2022-11-21T11:30:03.035Z,64.00
2022-11-21T11:31:02.848Z,64.00
2022-11-21T11:32:02.876Z,64.00
2022-11-21T11:33:02.853Z,64.00
2022-11-21T11:34:02.810Z,64.00
2022-11-21T11:35:02.893Z,65.00
2022-11-21T11:36:02.579Z,65.00
2022-11-21T11:37:03.074Z,65.00
2022-11-21T11:38:02.526Z,65.00
2022-11-21T11:39:02.573Z,66.00
2022-11-21T11:40:03.114Z,65.00
2022-11-21T11:41:02.511Z,65.00
2022-11-21T11:42:03.286Z,65.00
2022-11-21T11:43:03.073Z,65.00
2022-11-21T11:44:02.879Z,65.00
2022-11-21T11:45:02.748Z,65.00
2022-11-21T11:46:03.174Z,65.00
2022-11-21T11:47:03.693Z,65.00
2022-11-21T11:48:03.322Z,65.00
2022-11-21T11:49:19.680Z,66.00
2022-11-21T11:50:03.570Z,66.00
2022-11-21T11:51:03.148Z,65.00
2022-11-21T11:52:03.348Z,65.00
2022-11-21T11:53:02.887Z,65.00
2022-11-21T11:54:03.337Z,65.00
2022-11-21T11:55:02.912Z,65.00
2022-11-21T11:56:03.387Z,64.00
2022-11-21T11:57:03.668Z,64.00
2022-11-21T11:58:03.167Z,64.00
2022-11-21T11:59:03.662Z,63.00
2022-11-21T12:00:03.330Z,64.00
2022-11-21T12:01:03.320Z,63.00
2022-11-21T12:02:08.856Z,63.00
2022-11-21T12:03:03.389Z,64.00
2022-11-21T12:04:03.133Z,64.00
2022-11-21T12:05:03.272Z,64.00
2022-11-21T12:06:08.649Z,65.00
2022-11-21T12:08:05.952Z,65.00
2022-11-21T12:09:02.547Z,65.00
2022-11-21T12:10:02.420Z,65.00
2022-11-21T12:11:02.637Z,64.00
2022-11-21T12:12:02.767Z,63.00
2022-11-21T12:13:03.292Z,64.00
2022-11-21T12:14:03.089Z,64.00
2022-11-21T12:15:02.952Z,63.00
2022-11-21T12:16:08.551Z,61.00
2022-11-21T12:17:03.227Z,62.00
2022-11-21T12:18:02.897Z,62.00
2022-11-21T12:19:02.475Z,62.00
2022-11-21T12:20:02.429Z,62.00
2022-11-21T12:21:02.462Z,61.00
2022-11-21T12:22:02.718Z,61.00
2022-11-21T12:23:03.112Z,60.00
2022-11-21T12:24:02.957Z,59.00
2022-11-21T12:25:03.384Z,59.00
2022-11-21T12:26:02.886Z,60.00
2022-11-21T12:27:03.203Z,60.00
2022-11-21T12:28:02.713Z,57.00
2022-11-21T12:29:03.153Z,56.00
2022-11-21T12:30:02.605Z,58.00
2022-11-21T12:31:02.983Z,58.00
2022-11-21T12:32:02.822Z,57.00
2022-11-21T12:33:08.136Z,58.00
2022-11-21T12:34:02.626Z,59.00
2022-11-21T12:35:02.547Z,59.00
2022-11-21T12:36:16.765Z,60.00
2022-11-21T12:37:03.034Z,60.00
2022-11-21T12:38:03.000Z,60.00
2022-11-21T12:39:02.699Z,57.00
2022-11-21T12:40:03.188Z,56.00
2022-11-21T12:41:03.215Z,56.00
2022-11-21T12:42:02.872Z,55.00
2022-11-21T12:43:02.419Z,56.00
2022-11-21T12:44:02.333Z,56.00
2022-11-21T12:45:02.485Z,57.00
2022-11-21T12:46:02.332Z,57.00
2022-11-21T12:47:03.035Z,56.00
2022-11-21T12:48:02.655Z,56.00
2022-11-21T12:49:02.433Z,56.00
2022-11-21T12:50:02.969Z,56.00
2022-11-21T12:51:02.695Z,57.00
2022-11-21T12:52:03.085Z,57.00
2022-11-21T12:53:02.711Z,55.00